sensor_id;sensor_type;location;lat;lon;timestamp;P1;durP1;ratioP1;P2;durP2;ratioP2
57535;SDS011;43361;49.790;8.960;2023-05-29T00:07:49;8.05;;;4.78;;
57535;SDS011;43361;49.790;8.960;2023-05-29T00:17:50;11.27;;;4.55;;
57535;SDS011;43361;49.790;8.960;2023-05-29T00:27:52;9.98;;;4.43;;
57535;SDS011;43361;49.790;8.960;2023-05-29T00:37:54;8.50;;;4.90;;
57535;SDS011;43361;49.790;8.960;2023-05-29T01:19:05;7.80;;;4.07;;
57535;SDS011;43361;49.790;8.960;2023-05-29T01:29:12;7.72;;;4.25;;
57535;SDS011;43361;49.790;8.960;2023-05-29T01:39:13;6.90;;;3.38;;
57535;SDS011;43361;49.790;8.960;2023-05-29T01:49:16;7.95;;;3.55;;
57535;SDS011;43361;49.790;8.960;2023-05-29T01:59:16;6.65;;;3.67;;
57535;SDS011;43361;49.790;8.960;2023-05-29T02:09:18;4.95;;;3.05;;
57535;SDS011;43361;49.790;8.960;2023-05-29T02:19:20;5.40;;;3.33;;
57535;SDS011;43361;49.790;8.960;2023-05-29T02:29:22;6.82;;;3.28;;
57535;SDS011;43361;49.790;8.960;2023-05-29T02:39:22;4.95;;;2.85;;
57535;SDS011;43361;49.790;8.960;2023-05-29T02:59:24;4.77;;;3.03;;
57535;SDS011;43361;49.790;8.960;2023-05-29T03:09:25;3.55;;;2.47;;
57535;SDS011;43361;49.790;8.960;2023-05-29T03:19:27;4.30;;;2.80;;
57535;SDS011;43361;49.790;8.960;2023-05-29T03:29:27;3.70;;;2.53;;
57535;SDS011;43361;49.790;8.960;2023-05-29T03:39:29;4.10;;;2.60;;
57535;SDS011;43361;49.790;8.960;2023-05-29T03:49:29;6.35;;;2.83;;
57535;SDS011;43361;49.790;8.960;2023-05-29T03:59:31;4.18;;;2.60;;
57535;SDS011;43361;49.790;8.960;2023-05-29T04:09:31;4.03;;;2.55;;
57535;SDS011;43361;49.790;8.960;2023-05-29T04:19:33;4.85;;;2.63;;
57535;SDS011;43361;49.790;8.960;2023-05-29T04:29:34;3.70;;;2.28;;
57535;SDS011;43361;49.790;8.960;2023-05-29T04:39:36;6.15;;;2.45;;
57535;SDS011;43361;49.790;8.960;2023-05-29T04:49:36;3.13;;;1.90;;
57535;SDS011;43361;49.790;8.960;2023-05-29T04:59:38;3.67;;;2.25;;
57535;SDS011;43361;49.790;8.960;2023-05-29T05:09:38;4.40;;;2.30;;
57535;SDS011;43361;49.790;8.960;2023-05-29T05:29:40;3.30;;;1.90;;
57535;SDS011;43361;49.790;8.960;2023-05-29T05:39:41;3.15;;;2.03;;
57535;SDS011;43361;49.790;8.960;2023-05-29T05:49:42;3.45;;;1.92;;
57535;SDS011;43361;49.790;8.960;2023-05-29T05:59:43;2.75;;;1.77;;
57535;SDS011;43361;49.790;8.960;2023-05-29T06:09:45;4.95;;;1.80;;
57535;SDS011;43361;49.790;8.960;2023-05-29T06:19:45;5.25;;;1.90;;
57535;SDS011;43361;49.790;8.960;2023-05-29T06:29:47;2.95;;;1.80;;
57535;SDS011;43361;49.790;8.960;2023-05-29T06:39:47;3.28;;;2.08;;
57535;SDS011;43361;49.790;8.960;2023-05-29T06:59:49;12.80;;;3.10;;
57535;SDS011;43361;49.790;8.960;2023-05-29T07:09:50;13.10;;;2.72;;
57535;SDS011;43361;49.790;8.960;2023-05-29T07:19:52;16.88;;;3.33;;
57535;SDS011;43361;49.790;8.960;2023-05-29T07:29:53;23.63;;;2.88;;
57535;SDS011;43361;49.790;8.960;2023-05-29T07:39:55;8.88;;;3.30;;
57535;SDS011;43361;49.790;8.960;2023-05-29T07:49:56;7.28;;;2.88;;
57535;SDS011;43361;49.790;8.960;2023-05-29T07:59:57;11.45;;;2.92;;
57535;SDS011;43361;49.790;8.960;2023-05-29T08:09:58;14.50;;;2.83;;
57535;SDS011;43361;49.790;8.960;2023-05-29T08:20:00;14.73;;;2.50;;
57535;SDS011;43361;49.790;8.960;2023-05-29T08:30:00;14.13;;;3.22;;
57535;SDS011;43361;49.790;8.960;2023-05-29T08:40:04;6.53;;;2.65;;
57535;SDS011;43361;49.790;8.960;2023-05-29T08:50:09;15.80;;;3.05;;
57535;SDS011;43361;49.790;8.960;2023-05-29T09:00:12;65.93;;;9.68;;
57535;SDS011;43361;49.790;8.960;2023-05-29T09:10:12;33.72;;;5.93;;
57535;SDS011;43361;49.790;8.960;2023-05-29T09:20:15;44.60;;;6.88;;
57535;SDS011;43361;49.790;8.960;2023-05-29T09:30:30;38.13;;;6.97;;
57535;SDS011;43361;49.790;8.960;2023-05-29T09:40:32;36.28;;;6.22;;
57535;SDS011;43361;49.790;8.960;2023-05-29T09:50:33;24.27;;;5.78;;
57535;SDS011;43361;49.790;8.960;2023-05-29T10:00:35;28.67;;;6.43;;
57535;SDS011;43361;49.790;8.960;2023-05-29T10:10:35;19.83;;;4.93;;
57535;SDS011;43361;49.790;8.960;2023-05-29T10:20:38;25.08;;;5.18;;
57535;SDS011;43361;49.790;8.960;2023-05-29T10:30:42;11.55;;;4.28;;
57535;SDS011;43361;49.790;8.960;2023-05-29T10:40:47;17.75;;;4.47;;
57535;SDS011;43361;49.790;8.960;2023-05-29T10:50:47;14.38;;;4.97;;
57535;SDS011;43361;49.790;8.960;2023-05-29T11:00:49;13.63;;;4.15;;
57535;SDS011;43361;49.790;8.960;2023-05-29T11:10:56;15.23;;;4.53;;
57535;SDS011;43361;49.790;8.960;2023-05-29T11:21:00;14.73;;;4.20;;
57535;SDS011;43361;49.790;8.960;2023-05-29T11:31:02;13.50;;;3.78;;
57535;SDS011;43361;49.790;8.960;2023-05-29T11:41:09;12.77;;;3.60;;
57535;SDS011;43361;49.790;8.960;2023-05-29T11:51:10;12.23;;;3.45;;
57535;SDS011;43361;49.790;8.960;2023-05-29T12:01:12;9.27;;;3.42;;
57535;SDS011;43361;49.790;8.960;2023-05-29T12:11:17;8.25;;;3.60;;
57535;SDS011;43361;49.790;8.960;2023-05-29T12:21:24;7.20;;;3.53;;
57535;SDS011;43361;49.790;8.960;2023-05-29T12:31:28;8.73;;;3.35;;
57535;SDS011;43361;49.790;8.960;2023-05-29T12:41:33;17.73;;;3.45;;
57535;SDS011;43361;49.790;8.960;2023-05-29T12:51:34;9.13;;;2.85;;
57535;SDS011;43361;49.790;8.960;2023-05-29T13:01:37;7.90;;;3.13;;
57535;SDS011;43361;49.790;8.960;2023-05-29T13:11:40;7.10;;;3.17;;
57535;SDS011;43361;49.790;8.960;2023-05-29T13:31:49;6.72;;;3.28;;
57535;SDS011;43361;49.790;8.960;2023-05-29T13:41:49;10.70;;;3.42;;
57535;SDS011;43361;49.790;8.960;2023-05-29T13:51:51;8.35;;;2.90;;
57535;SDS011;43361;49.790;8.960;2023-05-29T14:01:52;6.20;;;2.60;;
57535;SDS011;43361;49.790;8.960;2023-05-29T14:11:53;7.03;;;2.80;;
57535;SDS011;43361;49.790;8.960;2023-05-29T14:21:54;6.93;;;2.58;;
57535;SDS011;43361;49.790;8.960;2023-05-29T14:31:56;8.23;;;3.00;;
57535;SDS011;43361;49.790;8.960;2023-05-29T14:41:56;16.10;;;3.22;;
57535;SDS011;43361;49.790;8.960;2023-05-29T14:51:58;16.35;;;3.83;;
57535;SDS011;43361;49.790;8.960;2023-05-29T15:01:59;12.00;;;3.80;;
57535;SDS011;43361;49.790;8.960;2023-05-29T15:12:01;15.55;;;3.15;;
57535;SDS011;43361;49.790;8.960;2023-05-29T15:22:03;7.10;;;3.20;;
57535;SDS011;43361;49.790;8.960;2023-05-29T15:32:05;9.48;;;3.10;;
57535;SDS011;43361;49.790;8.960;2023-05-29T15:42:06;18.08;;;3.90;;
57535;SDS011;43361;49.790;8.960;2023-05-29T15:52:12;13.88;;;3.53;;
57535;SDS011;43361;49.790;8.960;2023-05-29T16:02:13;16.00;;;4.30;;
57535;SDS011;43361;49.790;8.960;2023-05-29T16:12:15;15.00;;;3.70;;
57535;SDS011;43361;49.790;8.960;2023-05-29T16:22:15;14.07;;;3.67;;
57535;SDS011;43361;49.790;8.960;2023-05-29T16:32:17;8.82;;;3.42;;
57535;SDS011;43361;49.790;8.960;2023-05-29T16:42:17;7.03;;;2.67;;
57535;SDS011;43361;49.790;8.960;2023-05-29T16:52:19;8.00;;;3.20;;
57535;SDS011;43361;49.790;8.960;2023-05-29T17:02:19;10.57;;;3.75;;
57535;SDS011;43361;49.790;8.960;2023-05-29T17:12:22;6.70;;;3.38;;
57535;SDS011;43361;49.790;8.960;2023-05-29T17:22:23;6.97;;;2.97;;
57535;SDS011;43361;49.790;8.960;2023-05-29T17:32:24;8.23;;;2.70;;
57535;SDS011;43361;49.790;8.960;2023-05-29T17:42:25;5.53;;;2.38;;
57535;SDS011;43361;49.790;8.960;2023-05-29T17:52:27;7.50;;;3.00;;
57535;SDS011;43361;49.790;8.960;2023-05-29T18:02:28;12.27;;;2.58;;
57535;SDS011;43361;49.790;8.960;2023-05-29T18:12:29;8.73;;;2.53;;
57535;SDS011;43361;49.790;8.960;2023-05-29T18:22:30;9.38;;;2.90;;
57535;SDS011;43361;49.790;8.960;2023-05-29T18:32:33;8.38;;;3.13;;
57535;SDS011;43361;49.790;8.960;2023-05-29T18:42:37;4.15;;;2.33;;
57535;SDS011;43361;49.790;8.960;2023-05-29T18:52:39;6.32;;;2.13;;
57535;SDS011;43361;49.790;8.960;2023-05-29T19:02:40;3.92;;;2.35;;
57535;SDS011;43361;49.790;8.960;2023-05-29T19:12:42;8.73;;;2.83;;
57535;SDS011;43361;49.790;8.960;2023-05-29T19:22:48;5.07;;;2.20;;
57535;SDS011;43361;49.790;8.960;2023-05-29T19:32:50;9.00;;;2.70;;
57535;SDS011;43361;49.790;8.960;2023-05-29T19:42:50;4.90;;;2.50;;
57535;SDS011;43361;49.790;8.960;2023-05-29T19:52:52;6.00;;;2.13;;
57535;SDS011;43361;49.790;8.960;2023-05-29T20:02:52;6.90;;;2.60;;
57535;SDS011;43361;49.790;8.960;2023-05-29T20:12:54;6.70;;;2.80;;
57535;SDS011;43361;49.790;8.960;2023-05-29T20:22:55;4.13;;;2.10;;
57535;SDS011;43361;49.790;8.960;2023-05-29T20:32:57;6.00;;;2.50;;
57535;SDS011;43361;49.790;8.960;2023-05-29T20:42:57;5.05;;;2.65;;
57535;SDS011;43361;49.790;8.960;2023-05-29T20:52:59;5.70;;;2.33;;
57535;SDS011;43361;49.790;8.960;2023-05-29T21:02:59;3.85;;;2.15;;
57535;SDS011;43361;49.790;8.960;2023-05-29T21:13:02;4.80;;;2.72;;
57535;SDS011;43361;49.790;8.960;2023-05-29T21:23:03;6.47;;;2.05;;
57535;SDS011;43361;49.790;8.960;2023-05-29T21:33:04;4.07;;;2.03;;
57535;SDS011;43361;49.790;8.960;2023-05-29T21:43:06;3.78;;;1.98;;
57535;SDS011;43361;49.790;8.960;2023-05-29T21:53:08;3.53;;;2.05;;
57535;SDS011;43361;49.790;8.960;2023-05-29T22:03:08;3.95;;;2.30;;
57535;SDS011;43361;49.790;8.960;2023-05-29T22:13:10;5.78;;;2.05;;
57535;SDS011;43361;49.790;8.960;2023-05-29T22:23:11;4.72;;;2.22;;
57535;SDS011;43361;49.790;8.960;2023-05-29T22:33:13;5.15;;;1.77;;
57535;SDS011;43361;49.790;8.960;2023-05-29T22:43:14;4.78;;;2.00;;
57535;SDS011;43361;49.790;8.960;2023-05-29T22:53:16;4.13;;;1.63;;
57535;SDS011;43361;49.790;8.960;2023-05-29T23:03:16;3.35;;;2.15;;
57535;SDS011;43361;49.790;8.960;2023-05-29T23:13:18;3.55;;;1.75;;
57535;SDS011;43361;49.790;8.960;2023-05-29T23:23:18;3.58;;;2.10;;
57535;SDS011;43361;49.790;8.960;2023-05-29T23:33:20;4.60;;;1.98;;
57535;SDS011;43361;49.790;8.960;2023-05-29T23:43:21;3.08;;;1.90;;
57535;SDS011;43361;49.790;8.960;2023-05-29T23:53:23;4.00;;;1.90;;
